createdAt,value
2022-12-25T00:00:02.119Z,99700.00
2022-12-25T00:02:32.695Z,99695.00
2022-12-25T00:05:03.259Z,99700.00
2022-12-25T00:07:31.774Z,99698.00
2022-12-25T00:09:59.897Z,99705.00
2022-12-25T00:12:27.811Z,99704.00
2022-12-25T00:14:58.600Z,99709.00
2022-12-25T00:17:26.507Z,99708.00
2022-12-25T00:19:54.391Z,99696.00
2022-12-25T00:22:24.092Z,99703.00
2022-12-25T00:24:54.394Z,99703.00
2022-12-25T00:27:22.234Z,99693.00
2022-12-25T00:30:00.266Z,99708.00
2022-12-25T00:32:29.255Z,99703.00
2022-12-25T00:34:57.435Z,99688.00
2022-12-25T00:37:27.703Z,99691.00
2022-12-25T00:39:55.517Z,99687.00
2022-12-25T00:42:24.882Z,99685.00
2022-12-25T00:44:54.506Z,99686.00
2022-12-25T00:47:29.398Z,99693.00
2022-12-25T00:49:57.249Z,99694.00
2022-12-25T00:52:27.875Z,99700.00
2022-12-25T00:54:55.694Z,99687.00
2022-12-25T00:57:28.422Z,99682.00
2022-12-25T00:59:58.234Z,99695.00
2022-12-25T01:02:29.100Z,99696.00
2022-12-25T01:04:59.256Z,99683.00
2022-12-25T01:07:29.479Z,99672.00
2022-12-25T01:10:15.231Z,99673.00
2022-12-25T01:12:47.223Z,99676.00
2022-12-25T01:15:15.189Z,99668.00
2022-12-25T01:17:47.868Z,99677.00
2022-12-25T01:20:20.013Z,99674.00
2022-12-25T01:22:47.907Z,99678.00
2022-12-25T01:25:15.787Z,99697.00
2022-12-25T01:27:43.666Z,99696.00
2022-12-25T01:30:12.844Z,99704.00
2022-12-25T01:32:40.745Z,99701.00
2022-12-25T01:35:12.404Z,99713.00
2022-12-25T01:37:40.308Z,99719.00
2022-12-25T01:40:10.791Z,99723.00
2022-12-25T01:42:38.757Z,99728.00
2022-12-25T01:45:34.474Z,99736.00
2022-12-25T01:48:11.227Z,99739.00
2022-12-25T01:50:47.714Z,99725.00
2022-12-25T01:53:18.147Z,99730.00
2022-12-25T01:55:49.958Z,99732.00
2022-12-25T01:58:19.256Z,99712.00
2022-12-25T02:00:50.278Z,99734.00
2022-12-25T02:03:23.315Z,99726.00
2022-12-25T02:06:18.522Z,99735.00
2022-12-25T02:08:49.364Z,99735.00
2022-12-25T02:11:31.175Z,99738.00
2022-12-25T02:14:00.128Z,99739.00
2022-12-25T02:16:35.592Z,99735.00
2022-12-25T02:19:55.313Z,99731.00
2022-12-25T02:22:42.901Z,99725.00
2022-12-25T02:25:33.926Z,99732.00
2022-12-25T02:28:38.015Z,99741.00
2022-12-25T02:31:14.096Z,99744.00
2022-12-25T02:34:07.566Z,99742.00
2022-12-25T02:36:45.305Z,99736.00
2022-12-25T02:39:42.356Z,99738.00
2022-12-25T02:42:21.153Z,99738.00
2022-12-25T02:45:13.437Z,99728.00
2022-12-25T02:47:58.905Z,99730.00
2022-12-25T02:50:47.936Z,99722.00
2022-12-25T02:53:46.951Z,99729.00
2022-12-25T02:56:34.908Z,99732.00
2022-12-25T02:59:38.597Z,99741.00
2022-12-25T03:02:27.947Z,99739.00
2022-12-25T03:05:16.073Z,99739.00
2022-12-25T03:07:48.827Z,99735.00
2022-12-25T03:10:34.684Z,99730.00
2022-12-25T03:13:12.484Z,99725.00
2022-12-25T03:15:59.087Z,99732.00
2022-12-25T03:18:32.971Z,99727.00
2022-12-25T03:21:18.102Z,99736.00
2022-12-25T03:24:13.030Z,99731.00
2022-12-25T03:26:56.311Z,99731.00
2022-12-25T03:29:50.038Z,99744.00
2022-12-25T03:32:34.585Z,99741.00
2022-12-25T03:35:25.298Z,99749.00
2022-12-25T03:38:31.407Z,99749.00
2022-12-25T03:41:31.964Z,99740.00
2022-12-25T03:44:29.762Z,99751.00
2022-12-25T03:47:28.938Z,99763.00
2022-12-25T03:50:29.519Z,99765.00
2022-12-25T03:53:21.416Z,99761.00
2022-12-25T03:56:10.116Z,99761.00
2022-12-25T03:58:56.210Z,99771.00
2022-12-25T04:01:44.910Z,99777.00
2022-12-25T04:04:30.544Z,99771.00
2022-12-25T04:07:20.312Z,99769.00
2022-12-25T04:10:05.831Z,99770.00
2022-12-25T04:12:51.088Z,99760.00
2022-12-25T04:15:38.006Z,99762.00
2022-12-25T04:18:24.015Z,99763.00
2022-12-25T04:21:09.659Z,99757.00
2022-12-25T04:23:56.488Z,99761.00
2022-12-25T04:26:45.244Z,99761.00
2022-12-25T04:29:33.855Z,99758.00
2022-12-25T04:32:19.658Z,99753.00
2022-12-25T04:35:05.205Z,99748.00
2022-12-25T04:37:33.051Z,99756.00
2022-12-25T04:40:04.623Z,99751.00
2022-12-25T04:42:34.509Z,99756.00
2022-12-25T04:45:02.344Z,99767.00
2022-12-25T04:47:30.175Z,99773.00
2022-12-25T04:49:58.368Z,99773.00
2022-12-25T04:52:27.479Z,99774.00
2022-12-25T04:54:55.334Z,99769.00
2022-12-25T04:57:24.470Z,99766.00
2022-12-25T04:59:54.673Z,99777.00
2022-12-25T05:02:22.773Z,99773.00
2022-12-25T05:04:59.670Z,99771.00
2022-12-25T05:07:27.773Z,99777.00
2022-12-25T05:09:58.224Z,99774.00
2022-12-25T05:12:31.290Z,99764.00
2022-12-25T05:14:59.153Z,99776.00
2022-12-25T05:17:27.105Z,99770.00
2022-12-25T05:19:57.539Z,99771.00
2022-12-25T05:22:26.691Z,99776.00
2022-12-25T05:24:57.326Z,99778.00
2022-12-25T05:27:27.112Z,99771.00
2022-12-25T05:29:59.976Z,99769.00
2022-12-25T05:32:32.960Z,99770.00
2022-12-25T05:35:02.562Z,99766.00
2022-12-25T05:37:30.478Z,99763.00
2022-12-25T05:40:01.695Z,99762.00
2022-12-25T05:42:29.928Z,99751.00
2022-12-25T05:45:03.268Z,99757.00
2022-12-25T05:47:32.290Z,99768.00
2022-12-25T05:50:00.728Z,99753.00
2022-12-25T05:52:35.384Z,99762.00
2022-12-25T05:55:04.024Z,99748.00
2022-12-25T05:57:33.342Z,99746.00
2022-12-25T06:00:02.641Z,99746.00
2022-12-25T06:02:41.840Z,99737.00
2022-12-25T06:05:12.436Z,99742.00
2022-12-25T06:07:40.251Z,99745.00
2022-12-25T06:10:09.901Z,99746.00
2022-12-25T06:12:37.892Z,99749.00
2022-12-25T06:15:12.744Z,99733.00
2022-12-25T06:17:40.693Z,99743.00
2022-12-25T06:20:33.447Z,99742.00
2022-12-25T06:23:04.659Z,99727.00
2022-12-25T06:25:32.520Z,99732.00
2022-12-25T06:28:03.003Z,99718.00
2022-12-25T06:30:32.393Z,99717.00
2022-12-25T06:33:02.926Z,99717.00
2022-12-25T06:35:30.795Z,99726.00
2022-12-25T06:37:58.786Z,99735.00
2022-12-25T06:40:28.063Z,99731.00
2022-12-25T06:43:03.095Z,99725.00
2022-12-25T06:45:36.568Z,99717.00
2022-12-25T06:48:07.208Z,99725.00
2022-12-25T06:50:37.520Z,99730.00
2022-12-25T06:53:05.507Z,99739.00
2022-12-25T06:55:33.632Z,99742.00
2022-12-25T06:58:03.058Z,99738.00
2022-12-25T07:00:34.546Z,99754.00
2022-12-25T07:03:08.109Z,99755.00
2022-12-25T07:05:37.343Z,99745.00
2022-12-25T07:08:05.776Z,99741.00
2022-12-25T07:10:33.695Z,99743.00
2022-12-25T07:13:03.896Z,99754.00
2022-12-25T07:15:33.090Z,99762.00
2022-12-25T07:18:03.545Z,99757.00
2022-12-25T07:20:31.632Z,99761.00
2022-12-25T07:22:59.482Z,99766.00
2022-12-25T07:25:33.571Z,99774.00
2022-12-25T07:28:07.377Z,99772.00
2022-12-25T07:30:39.017Z,99771.00
2022-12-25T07:33:10.785Z,99782.00
2022-12-25T07:35:38.727Z,99788.00
2022-12-25T07:38:09.242Z,99788.00
2022-12-25T07:40:38.527Z,99793.00
2022-12-25T07:43:06.571Z,99793.00
2022-12-25T07:45:34.848Z,99796.00
2022-12-25T07:48:15.345Z,99788.00
2022-12-25T07:50:46.317Z,99789.00
2022-12-25T07:53:16.798Z,99790.00
2022-12-25T07:55:44.705Z,99804.00
2022-12-25T07:58:12.538Z,99797.00
2022-12-25T08:00:42.771Z,99805.00
2022-12-25T08:03:16.967Z,99798.00
2022-12-25T08:05:46.917Z,99797.00
2022-12-25T08:08:17.170Z,99796.00
2022-12-25T08:10:49.299Z,99793.00
2022-12-25T08:13:25.814Z,99796.00
2022-12-25T08:16:01.248Z,99788.00
2022-12-25T08:18:34.443Z,99785.00
2022-12-25T08:21:05.122Z,99800.00
2022-12-25T08:23:37.373Z,99791.00
2022-12-25T08:26:08.185Z,99786.00
2022-12-25T08:28:37.420Z,99787.00
2022-12-25T08:31:19.004Z,99783.00
2022-12-25T08:33:51.266Z,99783.00
2022-12-25T08:36:22.912Z,99757.00
2022-12-25T08:38:55.637Z,99760.00
2022-12-25T08:41:30.537Z,99750.00
2022-12-25T08:44:02.047Z,99745.00
2022-12-25T08:46:30.058Z,99745.00
2022-12-25T08:49:03.686Z,99738.00
2022-12-25T08:51:33.872Z,99724.00
2022-12-25T08:54:05.060Z,99726.00
2022-12-25T08:56:33.495Z,99732.00
2022-12-25T08:59:01.357Z,99730.00
2022-12-25T09:01:33.077Z,99725.00
2022-12-25T09:04:13.532Z,99708.00
2022-12-25T09:06:46.770Z,99727.00
2022-12-25T09:09:18.255Z,99727.00
2022-12-25T09:11:53.127Z,99707.00
2022-12-25T09:14:29.133Z,99697.00
2022-12-25T09:17:04.947Z,99699.00
2022-12-25T09:19:41.178Z,99701.00
2022-12-25T09:22:09.131Z,99699.00
2022-12-25T09:24:39.162Z,99706.00
2022-12-25T09:27:07.795Z,99709.00
2022-12-25T09:29:35.959Z,99711.00
2022-12-25T09:32:05.087Z,99713.00
2022-12-25T09:34:32.903Z,99707.00
2022-12-25T09:37:04.726Z,99702.00
2022-12-25T09:39:34.702Z,99689.00
2022-12-25T09:42:14.121Z,99680.00
2022-12-25T09:44:48.989Z,99688.00
2022-12-25T09:47:21.838Z,99678.00
2022-12-25T09:49:59.727Z,99691.00
2022-12-25T09:52:45.111Z,99702.00
2022-12-25T09:55:20.536Z,99699.00
2022-12-25T09:58:01.611Z,99689.00
2022-12-25T10:00:39.330Z,99682.00
2022-12-25T10:03:40.321Z,99684.00
2022-12-25T10:06:23.289Z,99691.00
2022-12-25T10:09:30.411Z,99689.00
2022-12-25T10:12:23.800Z,99682.00
2022-12-25T10:15:11.838Z,99680.00
2022-12-25T10:18:09.883Z,99698.00
2022-12-25T10:20:53.660Z,99684.00
2022-12-25T10:23:33.261Z,99659.00
2022-12-25T10:26:05.551Z,99658.00
2022-12-25T10:28:41.671Z,99649.00
2022-12-25T10:31:22.453Z,99666.00
2022-12-25T10:33:53.813Z,99662.00
2022-12-25T10:36:30.257Z,99667.00
2022-12-25T10:39:00.920Z,99654.00
2022-12-25T10:42:19.366Z,99651.00
2022-12-25T10:45:05.020Z,99644.00
2022-12-25T10:47:37.960Z,99644.00
2022-12-25T10:50:13.662Z,99645.00
2022-12-25T10:53:01.423Z,99629.00
2022-12-25T10:55:30.005Z,99636.00
2022-12-25T10:58:02.047Z,99633.00
2022-12-25T11:00:39.068Z,99614.00
2022-12-25T11:03:07.734Z,99624.00
2022-12-25T11:05:37.920Z,99621.00
2022-12-25T11:08:24.310Z,99635.00
2022-12-25T11:11:06.299Z,99619.00
2022-12-25T11:13:42.860Z,99615.00
2022-12-25T11:16:26.394Z,99605.00
2022-12-25T11:18:55.432Z,99602.00
2022-12-25T11:21:30.752Z,99590.00
2022-12-25T11:24:04.767Z,99585.00
2022-12-25T11:26:48.526Z,99572.00
2022-12-25T11:29:30.845Z,99560.00
2022-12-25T11:32:03.437Z,99565.00
2022-12-25T11:34:46.461Z,99560.00
2022-12-25T11:37:20.900Z,99563.00
2022-12-25T11:39:49.373Z,99550.00
2022-12-25T11:42:23.554Z,99542.00
2022-12-25T11:45:06.415Z,99536.00
2022-12-25T11:47:40.630Z,99531.00
2022-12-25T11:50:30.791Z,99517.00
2022-12-25T11:53:15.783Z,99520.00
2022-12-25T11:55:54.601Z,99509.00
2022-12-25T11:58:34.439Z,99516.00
2022-12-25T12:01:11.296Z,99491.00
2022-12-25T12:03:43.150Z,99498.00
2022-12-25T12:06:24.188Z,99498.00
2022-12-25T12:09:02.421Z,99490.00
2022-12-25T12:11:42.157Z,99490.00
2022-12-25T12:14:43.104Z,99496.00
2022-12-25T12:17:15.497Z,99487.00
2022-12-25T12:19:45.598Z,99492.00
2022-12-25T12:22:37.281Z,99508.00
2022-12-25T12:25:10.870Z,99500.00
2022-12-25T12:27:43.142Z,99500.00
2022-12-25T12:30:31.263Z,99468.00
2022-12-25T12:33:20.155Z,99454.00
2022-12-25T12:35:49.850Z,99439.00
2022-12-25T12:38:21.865Z,99447.00
2022-12-25T12:40:56.439Z,99456.00
2022-12-25T12:43:55.282Z,99442.00
2022-12-25T12:46:31.404Z,99405.00
2022-12-25T12:49:22.149Z,99423.00
2022-12-25T12:51:52.019Z,99424.00
2022-12-25T12:54:26.222Z,99437.00
2022-12-25T12:57:01.272Z,99444.00
2022-12-25T12:59:45.806Z,99444.00
2022-12-25T13:03:08.162Z,99460.00
2022-12-25T13:05:47.972Z,99469.00
2022-12-25T13:08:40.975Z,99479.00
2022-12-25T13:11:21.541Z,99476.00
2022-12-25T13:13:52.431Z,99481.00
2022-12-25T13:16:41.835Z,99483.00
2022-12-25T13:19:19.487Z,99472.00
2022-12-25T13:21:57.083Z,99474.00
2022-12-25T13:24:28.125Z,99473.00
2022-12-25T13:26:56.768Z,99471.00
2022-12-25T13:29:37.849Z,99459.00
2022-12-25T13:32:21.910Z,99460.00
2022-12-25T13:34:52.286Z,99458.00
2022-12-25T13:37:27.354Z,99468.00
2022-12-25T13:39:59.178Z,99449.00
2022-12-25T13:42:31.092Z,99449.00
2022-12-25T13:45:06.323Z,99447.00
2022-12-25T13:47:39.025Z,99438.00
2022-12-25T13:50:17.651Z,99437.00
2022-12-25T13:52:56.343Z,99436.00
2022-12-25T13:55:27.251Z,99427.00
2022-12-25T13:57:59.028Z,99427.00
2022-12-25T14:00:41.168Z,99415.00
2022-12-25T14:03:21.628Z,99398.00
2022-12-25T14:05:58.960Z,99388.00
2022-12-25T14:08:34.279Z,99389.00
2022-12-25T14:11:08.084Z,99386.00
2022-12-25T14:13:41.777Z,99383.00
2022-12-25T14:16:14.145Z,99383.00
2022-12-25T14:18:56.514Z,99390.00
2022-12-25T14:21:33.234Z,99400.00
2022-12-25T14:24:13.071Z,99393.00
2022-12-25T14:26:43.539Z,99388.00
2022-12-25T14:29:20.456Z,99391.00
2022-12-25T14:31:52.839Z,99386.00
2022-12-25T14:34:26.778Z,99376.00
2022-12-25T14:36:55.728Z,99383.00
2022-12-25T14:39:37.465Z,99380.00
2022-12-25T14:42:23.685Z,99367.00
2022-12-25T14:45:16.269Z,99376.00
2022-12-25T14:47:55.142Z,99365.00
2022-12-25T14:50:32.601Z,99385.00
2022-12-25T14:53:01.024Z,99388.00
2022-12-25T14:55:33.612Z,99387.00
2022-12-25T14:58:08.523Z,99374.00
2022-12-25T15:00:42.817Z,99373.00
2022-12-25T15:03:25.041Z,99363.00
2022-12-25T15:06:08.305Z,99367.00
2022-12-25T15:08:36.534Z,99383.00
2022-12-25T15:11:06.400Z,99388.00
2022-12-25T15:13:34.371Z,99395.00
2022-12-25T15:16:18.062Z,99385.00
2022-12-25T15:18:48.259Z,99390.00
2022-12-25T15:21:28.435Z,99391.00
2022-12-25T15:24:00.131Z,99390.00
2022-12-25T15:26:33.701Z,99391.00
2022-12-25T15:31:43.441Z,99369.00
2022-12-25T15:34:23.590Z,99370.00
2022-12-25T15:36:53.317Z,99368.00
2022-12-25T15:39:21.192Z,99375.00
2022-12-25T15:42:16.921Z,99377.00
2022-12-25T15:44:46.086Z,99367.00
2022-12-25T15:47:19.927Z,99363.00
2022-12-25T15:49:47.913Z,99347.00
2022-12-25T15:52:20.116Z,99326.00
2022-12-25T15:54:47.970Z,99316.00
2022-12-25T15:57:23.845Z,99314.00
2022-12-25T15:59:53.034Z,99323.00
2022-12-25T16:02:22.735Z,99316.00
2022-12-25T16:04:51.297Z,99321.00
2022-12-25T16:07:23.032Z,99333.00
2022-12-25T16:09:52.382Z,99353.00
2022-12-25T16:12:23.057Z,99359.00
2022-12-25T16:14:53.270Z,99355.00
2022-12-25T16:17:29.959Z,99341.00
2022-12-25T16:19:58.903Z,99331.00
2022-12-25T16:22:28.621Z,99337.00
2022-12-25T16:24:58.092Z,99322.00
2022-12-25T16:27:28.460Z,99310.00
2022-12-25T16:29:56.327Z,99310.00
2022-12-25T16:32:25.305Z,99297.00
2022-12-25T16:34:53.591Z,99290.00
2022-12-25T16:37:21.495Z,99291.00
2022-12-25T16:39:49.925Z,99287.00
2022-12-25T16:42:17.811Z,99269.00
2022-12-25T16:44:49.781Z,99264.00
2022-12-25T16:47:17.677Z,99256.00
2022-12-25T16:49:45.926Z,99251.00
2022-12-25T16:52:14.924Z,99234.00
2022-12-25T16:54:42.777Z,99235.00
2022-12-25T16:57:10.664Z,99241.00
2022-12-25T16:59:38.847Z,99240.00
2022-12-25T17:02:08.185Z,99228.00
2022-12-25T17:04:36.560Z,99233.00
2022-12-25T17:07:05.771Z,99230.00
2022-12-25T17:09:37.472Z,99222.00
2022-12-25T17:12:09.531Z,99208.00
2022-12-25T17:14:40.186Z,99207.00
2022-12-25T17:17:11.721Z,99199.00
2022-12-25T17:19:40.917Z,99188.00
2022-12-25T17:22:10.075Z,99186.00
2022-12-25T17:24:40.337Z,99165.00
2022-12-25T17:27:09.726Z,99172.00
2022-12-25T17:29:40.558Z,99159.00
2022-12-25T17:32:13.513Z,99159.00
2022-12-25T17:34:41.375Z,99143.00
2022-12-25T17:37:10.527Z,99164.00
2022-12-25T17:39:39.465Z,99171.00
2022-12-25T17:42:07.523Z,99166.00
2022-12-25T17:44:35.981Z,99166.00
2022-12-25T17:47:07.171Z,99166.00
2022-12-25T17:49:40.667Z,99163.00
2022-12-25T17:52:10.205Z,99154.00
2022-12-25T17:54:41.678Z,99149.00
2022-12-25T17:57:12.171Z,99136.00
2022-12-25T17:59:40.072Z,99147.00
2022-12-25T18:02:09.400Z,99155.00
2022-12-25T18:04:42.381Z,99144.00
2022-12-25T18:07:10.330Z,99146.00
2022-12-25T18:09:38.487Z,99147.00
2022-12-25T18:12:09.622Z,99144.00
2022-12-25T18:14:37.610Z,99138.00
2022-12-25T18:17:10.514Z,99153.00
2022-12-25T18:19:40.816Z,99160.00
2022-12-25T18:22:12.460Z,99138.00
2022-12-25T18:24:40.769Z,99162.00
2022-12-25T18:27:11.409Z,99170.00
2022-12-25T18:29:41.904Z,99175.00
2022-12-25T18:32:11.391Z,99182.00
2022-12-25T18:34:41.650Z,99180.00
2022-12-25T18:37:10.962Z,99179.00
2022-12-25T18:39:39.068Z,99187.00
2022-12-25T18:42:24.731Z,99176.00
2022-12-25T18:44:54.363Z,99164.00
2022-12-25T18:47:22.220Z,99156.00
2022-12-25T18:49:55.398Z,99135.00
2022-12-25T18:52:49.125Z,99138.00
2022-12-25T18:55:15.435Z,99128.00
2022-12-25T18:57:45.341Z,99130.00
2022-12-25T19:00:13.779Z,99119.00
2022-12-25T19:02:44.363Z,99118.00
2022-12-25T19:05:12.393Z,99128.00
2022-12-25T19:07:46.475Z,99135.00
2022-12-25T19:10:15.207Z,99117.00
2022-12-25T19:12:43.398Z,99121.00
2022-12-25T19:15:14.721Z,99120.00
2022-12-25T19:17:42.836Z,99121.00
2022-12-25T19:20:14.033Z,99110.00
2022-12-25T19:22:46.863Z,99115.00
2022-12-25T19:25:14.799Z,99123.00
2022-12-25T19:27:42.664Z,99122.00
2022-12-25T19:30:15.605Z,99125.00
2022-12-25T19:32:46.048Z,99120.00
2022-12-25T19:35:13.977Z,99122.00
2022-12-25T19:37:47.524Z,99115.00
2022-12-25T19:40:15.388Z,99118.00
2022-12-25T19:42:43.341Z,99119.00
2022-12-25T19:45:13.109Z,99103.00
2022-12-25T19:47:46.869Z,99107.00
2022-12-25T19:50:17.439Z,99103.00
2022-12-25T19:52:52.425Z,99112.00
2022-12-25T19:55:23.530Z,99103.00
2022-12-25T19:57:52.390Z,99104.00
2022-12-25T20:00:20.725Z,99096.00
2022-12-25T20:02:50.489Z,99093.00
2022-12-25T20:05:21.029Z,99096.00
2022-12-25T20:07:51.281Z,99100.00
2022-12-25T20:10:22.223Z,99089.00
2022-12-25T20:12:52.272Z,99092.00
2022-12-25T20:15:23.518Z,99085.00
2022-12-25T20:17:55.018Z,99096.00
2022-12-25T20:20:24.753Z,99086.00
2022-12-25T20:22:54.168Z,99093.00
2022-12-25T20:25:24.679Z,99094.00
2022-12-25T20:27:56.460Z,99092.00
2022-12-25T20:30:29.073Z,99093.00
2022-12-25T20:32:58.653Z,99091.00
2022-12-25T20:35:27.034Z,99095.00
2022-12-25T20:37:57.443Z,99101.00
2022-12-25T20:40:27.670Z,99096.00
2022-12-25T20:42:56.003Z,99071.00
2022-12-25T20:45:23.893Z,99083.00
2022-12-25T20:47:57.135Z,99085.00
2022-12-25T20:50:25.320Z,99095.00
2022-12-25T20:52:55.054Z,99089.00
2022-12-25T20:55:26.443Z,99097.00
2022-12-25T20:58:03.075Z,99095.00
2022-12-25T21:00:42.725Z,99101.00
2022-12-25T21:03:12.136Z,99098.00
2022-12-25T21:05:50.752Z,99105.00
2022-12-25T21:08:20.880Z,99098.00
2022-12-25T21:10:56.647Z,99094.00
2022-12-25T21:13:26.574Z,99083.00
2022-12-25T21:15:56.717Z,99081.00
2022-12-25T21:18:27.116Z,99073.00
2022-12-25T21:21:00.460Z,99086.00
2022-12-25T21:23:32.349Z,99096.00
2022-12-25T21:26:15.751Z,99091.00
2022-12-25T21:28:46.315Z,99085.00
2022-12-25T21:31:16.869Z,99098.00
2022-12-25T21:33:53.269Z,99092.00
2022-12-25T21:36:28.246Z,99085.00
2022-12-25T21:39:01.446Z,99104.00
2022-12-25T21:41:40.471Z,99120.00
2022-12-25T21:44:11.810Z,99117.00
2022-12-25T21:46:43.215Z,99108.00
2022-12-25T21:49:12.308Z,99103.00
2022-12-25T21:51:57.772Z,99106.00
2022-12-25T21:54:25.639Z,99114.00
2022-12-25T21:56:56.634Z,99113.00
2022-12-25T21:59:24.515Z,99095.00
2022-12-25T22:01:56.394Z,99100.00
2022-12-25T22:04:26.981Z,99107.00
2022-12-25T22:07:12.624Z,99098.00
2022-12-25T22:09:42.775Z,99090.00
2022-12-25T22:12:37.678Z,99103.00
2022-12-25T22:15:13.221Z,99089.00
2022-12-25T22:18:02.377Z,99099.00
2022-12-25T22:20:38.236Z,99075.00
2022-12-25T22:23:08.533Z,99093.00
2022-12-25T22:25:36.373Z,99100.00
2022-12-25T22:28:08.517Z,99109.00
2022-12-25T22:30:42.735Z,99118.00
2022-12-25T22:33:10.908Z,99117.00
2022-12-25T22:35:39.073Z,99108.00
2022-12-25T22:38:08.758Z,99101.00
2022-12-25T22:40:38.400Z,99104.00
2022-12-25T22:43:16.844Z,99102.00
2022-12-25T22:45:46.820Z,99098.00
2022-12-25T22:48:16.983Z,99097.00
2022-12-25T22:50:44.830Z,99100.00
2022-12-25T22:53:15.727Z,99095.00
2022-12-25T22:55:47.304Z,99100.00
2022-12-25T22:58:17.409Z,99095.00
2022-12-25T23:00:48.678Z,99093.00
2022-12-25T23:03:19.038Z,99102.00
2022-12-25T23:05:57.776Z,99098.00
2022-12-25T23:08:28.225Z,99101.00
2022-12-25T23:10:58.635Z,99114.00
2022-12-25T23:13:45.261Z,99117.00
2022-12-25T23:16:15.144Z,99104.00
2022-12-25T23:19:06.872Z,99112.00
2022-12-25T23:21:52.781Z,99114.00
2022-12-25T23:24:38.382Z,99112.00
2022-12-25T23:27:09.704Z,99107.00
2022-12-25T23:29:42.589Z,99103.00
2022-12-25T23:32:17.115Z,99096.00
2022-12-25T23:34:48.548Z,99088.00
2022-12-25T23:37:18.616Z,99073.00
2022-12-25T23:39:50.039Z,99080.00
2022-12-25T23:42:19.143Z,99059.00
2022-12-25T23:44:48.395Z,99072.00
2022-12-25T23:47:16.383Z,99068.00
2022-12-25T23:49:46.139Z,99076.00
2022-12-25T23:52:17.089Z,99092.00
2022-12-25T23:54:46.149Z,99096.00
2022-12-25T23:57:17.114Z,99110.00
2022-12-25T23:59:45.057Z,99103.00
